createdAt,value
2022-09-12T00:03:01.713Z,15.37
2022-09-12T00:08:04.776Z,15.42
2022-09-12T00:13:07.760Z,15.57
2022-09-12T00:18:15.806Z,15.63
2022-09-12T00:23:18.403Z,15.62
2022-09-12T00:28:20.979Z,15.53
2022-09-12T00:33:25.178Z,15.46
2022-09-12T00:38:27.926Z,15.39
2022-09-12T00:43:37.230Z,15.39
2022-09-12T00:48:44.270Z,15.40
2022-09-12T00:53:49.158Z,15.43
2022-09-12T00:58:54.996Z,15.38
2022-09-12T01:03:59.349Z,15.12
2022-09-12T01:09:03.971Z,15.08
2022-09-12T01:14:07.010Z,14.95
2022-09-12T01:19:26.733Z,15.04
2022-09-12T01:24:47.688Z,15.14
2022-09-12T01:30:25.931Z,15.19
2022-09-12T01:35:33.426Z,15.18
2022-09-12T01:40:42.276Z,15.06
2022-09-12T01:45:47.717Z,15.03
2022-09-12T01:50:54.721Z,15.02
2022-09-12T01:56:02.737Z,14.99
2022-09-12T02:01:08.652Z,14.96
2022-09-12T02:06:18.148Z,15.02
2022-09-12T02:11:21.443Z,15.04
2022-09-12T02:16:28.081Z,14.91
2022-09-12T02:21:33.076Z,14.95
2022-09-12T02:26:38.933Z,14.85
2022-09-12T02:31:45.702Z,14.73
2022-09-12T02:36:56.078Z,14.69
2022-09-12T02:42:00.932Z,14.58
2022-09-12T02:47:07.174Z,14.65
2022-09-12T02:52:11.201Z,14.77
2022-09-12T02:57:21.899Z,14.80
2022-09-12T03:02:33.730Z,14.79
2022-09-12T03:07:49.013Z,14.78
2022-09-12T03:12:59.407Z,14.75
2022-09-12T03:18:09.108Z,14.74
2022-09-12T03:23:18.762Z,14.70
2022-09-12T03:28:23.533Z,14.69
2022-09-12T03:33:27.308Z,14.64
2022-09-12T03:38:31.396Z,14.60
2022-09-12T03:43:33.992Z,14.56
2022-09-12T03:48:36.885Z,14.58
2022-09-12T03:53:40.928Z,14.55
2022-09-12T03:58:43.672Z,14.54
2022-09-12T04:03:47.751Z,14.49
2022-09-12T04:08:53.451Z,14.47
2022-09-12T04:13:56.065Z,14.41
2022-09-12T04:18:59.434Z,14.35
2022-09-12T04:24:03.724Z,14.32
2022-09-12T04:29:06.408Z,14.30
2022-09-12T04:34:09.096Z,14.29
2022-09-12T04:39:13.146Z,14.23
2022-09-12T04:44:16.281Z,14.23
2022-09-12T04:49:19.395Z,14.23
2022-09-12T04:54:23.406Z,14.24
2022-09-12T04:59:26.486Z,14.25
2022-09-12T05:04:29.332Z,14.24
2022-09-12T05:09:33.357Z,14.23
2022-09-12T05:14:36.011Z,14.30
2022-09-12T05:19:39.138Z,14.33
2022-09-12T05:24:49.866Z,14.40
2022-09-12T05:29:53.204Z,14.46
2022-09-12T05:34:55.914Z,14.59
2022-09-12T05:40:00.341Z,14.65
2022-09-12T05:45:02.978Z,14.68
2022-09-12T05:50:10.764Z,14.71
2022-09-12T05:55:14.812Z,14.81
2022-09-12T06:00:19.046Z,14.85
2022-09-12T06:05:21.755Z,14.87
2022-09-12T06:10:26.297Z,14.86
2022-09-12T06:15:28.991Z,14.85
2022-09-12T06:20:31.593Z,14.81
2022-09-12T06:25:35.599Z,14.81
2022-09-12T06:30:38.287Z,14.76
2022-09-12T06:35:40.958Z,14.70
2022-09-12T06:40:45.419Z,14.72
2022-09-12T06:45:50.172Z,14.66
2022-09-12T06:50:59.592Z,14.65
2022-09-12T06:56:05.836Z,14.65
2022-09-12T07:01:10.785Z,14.75
2022-09-12T07:06:15.547Z,14.91
2022-09-12T07:11:21.856Z,15.15
2022-09-12T07:16:24.657Z,15.23
2022-09-12T07:21:27.787Z,15.46
2022-09-12T07:26:32.613Z,15.66
2022-09-12T07:31:35.207Z,15.71
2022-09-12T07:36:39.161Z,15.73
2022-09-12T07:41:43.244Z,15.89
2022-09-12T07:46:46.167Z,16.08
2022-09-12T07:51:48.773Z,16.29
2022-09-12T07:56:52.770Z,16.30
2022-09-12T08:01:55.351Z,16.29
2022-09-12T08:06:57.995Z,16.32
2022-09-12T08:12:02.301Z,16.28
2022-09-12T08:17:05.356Z,16.24
2022-09-12T08:22:08.230Z,16.19
2022-09-12T08:27:12.410Z,16.14
2022-09-12T08:32:15.062Z,16.25
2022-09-12T08:37:17.755Z,16.36
2022-09-12T08:42:33.066Z,16.45
2022-09-12T08:47:37.891Z,16.58
2022-09-12T08:52:45.373Z,16.62
2022-09-12T08:57:49.328Z,16.77
2022-09-12T09:03:06.355Z,16.78
2022-09-12T09:08:17.855Z,17.00
2022-09-12T09:13:57.979Z,17.14
2022-09-12T09:19:05.593Z,17.35
2022-09-12T09:24:11.226Z,17.22
2022-09-12T09:29:18.979Z,17.21
2022-09-12T09:34:23.613Z,17.52
2022-09-12T09:39:47.488Z,17.71
2022-09-12T09:44:54.047Z,17.63
2022-09-12T09:49:56.881Z,17.90
2022-09-12T09:55:01.685Z,18.40
2022-09-12T10:00:22.618Z,18.61
2022-09-12T10:05:25.253Z,18.81
2022-09-12T10:10:27.992Z,18.98
2022-09-12T10:15:32.737Z,18.83
2022-09-12T10:20:36.869Z,18.64
2022-09-12T10:25:40.121Z,18.68
2022-09-12T10:30:52.492Z,18.76
2022-09-12T10:35:55.957Z,18.78
2022-09-12T10:41:01.323Z,18.80
2022-09-12T10:46:24.081Z,18.89
2022-09-12T10:51:29.209Z,19.21
2022-09-12T10:56:33.529Z,19.56
2022-09-12T11:01:41.800Z,19.96
2022-09-12T11:06:55.259Z,20.15
2022-09-12T11:12:04.602Z,19.88
2022-09-12T11:17:18.222Z,20.12
2022-09-12T11:22:31.870Z,20.28
2022-09-12T11:27:44.992Z,20.06
2022-09-12T11:33:13.926Z,22.86
2022-09-12T11:38:52.181Z,21.62
2022-09-12T11:43:58.757Z,23.85
2022-09-12T11:49:07.848Z,23.57
2022-09-12T11:54:20.821Z,21.83
2022-09-12T11:59:32.197Z,21.22
2022-09-12T12:04:41.275Z,21.40
2022-09-12T12:09:49.215Z,21.74
2022-09-12T12:14:53.429Z,22.98
2022-09-12T12:20:06.678Z,24.60
2022-09-12T12:25:29.733Z,22.75
2022-09-12T12:31:03.618Z,21.33
2022-09-12T12:36:09.683Z,20.70
2022-09-12T12:41:46.521Z,21.07
2022-09-12T12:47:09.946Z,22.05
2022-09-12T12:52:19.369Z,22.83
2022-09-12T12:57:35.958Z,23.56
2022-09-12T13:02:42.211Z,23.60
2022-09-12T13:07:48.059Z,23.69
2022-09-12T13:12:52.189Z,23.95
2022-09-12T13:17:55.109Z,24.03
2022-09-12T13:22:59.454Z,24.23
2022-09-12T13:28:07.792Z,24.26
2022-09-12T13:33:17.853Z,24.13
2022-09-12T13:38:27.552Z,23.73
2022-09-12T13:43:38.323Z,23.46
2022-09-12T13:48:41.764Z,23.41
2022-09-12T13:53:47.374Z,23.63
2022-09-12T13:58:55.706Z,23.41
2022-09-12T14:04:16.154Z,23.21
2022-09-12T14:09:25.438Z,22.77
2022-09-12T14:14:31.700Z,22.45
2022-09-12T14:19:34.593Z,22.28
2022-09-12T14:24:39.144Z,22.03
2022-09-12T14:29:44.018Z,21.82
2022-09-12T14:35:05.296Z,21.52
2022-09-12T14:40:17.550Z,21.35
2022-09-12T14:45:26.199Z,21.11
2022-09-12T14:50:31.460Z,20.93
2022-09-12T14:55:42.258Z,20.91
2022-09-12T15:00:59.814Z,20.96
2022-09-12T15:06:03.976Z,20.94
2022-09-12T15:11:08.627Z,20.86
2022-09-12T15:16:12.314Z,20.81
2022-09-12T15:21:18.658Z,20.79
2022-09-12T15:26:24.034Z,20.68
2022-09-12T15:31:29.883Z,20.53
2022-09-12T15:36:32.772Z,20.47
2022-09-12T15:41:39.017Z,20.41
2022-09-12T15:46:42.092Z,20.25
2022-09-12T15:51:44.771Z,20.14
2022-09-12T15:56:49.006Z,20.03
2022-09-12T16:01:52.076Z,19.95
2022-09-12T16:06:56.148Z,19.94
2022-09-12T16:12:00.187Z,19.88
2022-09-12T16:17:03.019Z,19.80
2022-09-12T16:22:05.952Z,19.82
2022-09-12T16:27:09.877Z,19.93
2022-09-12T16:32:12.503Z,19.84
2022-09-12T16:37:15.096Z,20.06
2022-09-12T16:42:19.779Z,20.15
2022-09-12T16:47:22.822Z,20.32
2022-09-12T16:52:25.543Z,20.39
2022-09-12T16:57:29.507Z,20.38
2022-09-12T17:02:32.185Z,20.22
2022-09-12T17:07:35.191Z,19.87
2022-09-12T17:12:39.295Z,19.61
2022-09-12T17:17:42.011Z,19.36
2022-09-12T17:22:44.779Z,19.16
2022-09-12T17:27:48.753Z,18.96
2022-09-12T17:32:52.482Z,18.83
2022-09-12T17:37:55.429Z,18.67
2022-09-12T17:42:59.515Z,18.55
2022-09-12T17:48:02.557Z,18.44
2022-09-12T17:53:06.413Z,18.32
2022-09-12T17:58:10.866Z,18.21
2022-09-12T18:03:13.901Z,18.15
2022-09-12T18:08:16.637Z,18.00
2022-09-12T18:13:20.905Z,17.90
2022-09-12T18:18:23.831Z,17.80
2022-09-12T18:23:26.910Z,17.67
2022-09-12T18:28:32.980Z,17.60
2022-09-12T18:33:35.892Z,17.57
2022-09-12T18:38:39.385Z,17.46
2022-09-12T18:43:43.387Z,17.37
2022-09-12T18:48:46.780Z,17.29
2022-09-12T18:53:51.929Z,17.24
2022-09-12T18:58:57.564Z,17.20
2022-09-12T19:04:04.617Z,17.10
2022-09-12T19:09:09.021Z,17.04
2022-09-12T19:14:13.066Z,16.96
2022-09-12T19:19:15.749Z,16.84
2022-09-12T19:24:18.531Z,16.77
2022-09-12T19:29:22.507Z,16.74
2022-09-12T19:34:25.143Z,16.67
2022-09-12T19:39:27.910Z,16.61
2022-09-12T19:44:32.433Z,16.54
2022-09-12T19:49:35.033Z,16.47
2022-09-12T19:54:37.829Z,16.41
2022-09-12T19:59:42.695Z,16.33
2022-09-12T20:04:45.396Z,16.28
2022-09-12T20:09:48.048Z,16.26
2022-09-12T20:14:52.013Z,16.21
2022-09-12T20:19:54.686Z,16.20
2022-09-12T20:24:57.317Z,16.23
2022-09-12T20:30:01.272Z,16.24
2022-09-12T20:35:04.106Z,16.25
2022-09-12T20:40:07.817Z,16.23
2022-09-12T20:45:12.393Z,16.22
2022-09-12T20:50:15.381Z,16.20
2022-09-12T20:55:18.190Z,16.17
2022-09-12T21:00:22.274Z,16.16
2022-09-12T21:05:24.907Z,16.12
2022-09-12T21:10:27.705Z,16.07
2022-09-12T21:15:31.679Z,16.05
2022-09-12T21:20:34.572Z,16.06
2022-09-12T21:25:37.246Z,16.02
2022-09-12T21:30:41.205Z,16.01
2022-09-12T21:35:44.390Z,16.01
2022-09-12T21:40:47.627Z,15.97
2022-09-12T21:45:58.102Z,15.92
2022-09-12T21:51:01.384Z,15.90
2022-09-12T21:56:05.604Z,15.85
2022-09-12T22:01:12.560Z,15.82
2022-09-12T22:06:17.780Z,15.80
2022-09-12T22:11:23.693Z,15.77
2022-09-12T22:16:27.872Z,15.73
2022-09-12T22:21:30.501Z,15.66
2022-09-12T22:26:34.941Z,15.64
2022-09-12T22:31:39.129Z,15.60
2022-09-12T22:36:41.953Z,15.56
2022-09-12T22:41:44.683Z,15.47
2022-09-12T22:46:48.652Z,15.33
2022-09-12T22:51:51.328Z,15.28
2022-09-12T22:56:54.019Z,15.19
2022-09-12T23:01:57.973Z,15.19
2022-09-12T23:07:00.635Z,15.12
2022-09-12T23:12:03.827Z,15.11
2022-09-12T23:17:08.074Z,15.03
2022-09-12T23:22:10.713Z,15.02
2022-09-12T23:27:13.340Z,15.00
2022-09-12T23:32:17.919Z,14.93
2022-09-12T23:37:21.642Z,14.86
2022-09-12T23:42:24.389Z,14.81
2022-09-12T23:47:28.279Z,14.77
2022-09-12T23:52:30.868Z,14.76
2022-09-12T23:57:33.449Z,14.71
